sensor_id;sensor_type;location;lat;lon;timestamp;P1;durP1;ratioP1;P2;durP2;ratioP2
43986;SDS011;29650;47.378;8.300;2023-02-28T00:00:26;4.97;;;3.03;;
43986;SDS011;29650;47.378;8.300;2023-02-28T00:03:09;4.68;;;2.72;;
43986;SDS011;29650;47.378;8.300;2023-02-28T00:05:45;5.97;;;3.15;;
43986;SDS011;29650;47.378;8.300;2023-02-28T00:08:12;5.18;;;3.30;;
43986;SDS011;29650;47.378;8.300;2023-02-28T00:10:40;7.50;;;2.87;;
43986;SDS011;29650;47.378;8.300;2023-02-28T00:13:07;19.38;;;3.13;;
43986;SDS011;29650;47.378;8.300;2023-02-28T00:15:34;4.95;;;2.58;;
43986;SDS011;29650;47.378;8.300;2023-02-28T00:18:01;4.53;;;3.22;;
43986;SDS011;29650;47.378;8.300;2023-02-28T00:20:33;3.67;;;2.88;;
43986;SDS011;29650;47.378;8.300;2023-02-28T00:23:00;4.90;;;2.85;;
43986;SDS011;29650;47.378;8.300;2023-02-28T00:25:27;5.80;;;3.05;;
43986;SDS011;29650;47.378;8.300;2023-02-28T00:28:09;5.28;;;2.55;;
43986;SDS011;29650;47.378;8.300;2023-02-28T00:30:36;5.00;;;2.92;;
43986;SDS011;29650;47.378;8.300;2023-02-28T00:33:03;4.53;;;3.28;;
43986;SDS011;29650;47.378;8.300;2023-02-28T00:35:31;5.05;;;3.47;;
43986;SDS011;29650;47.378;8.300;2023-02-28T00:37:59;11.00;;;3.80;;
43986;SDS011;29650;47.378;8.300;2023-02-28T00:40:26;5.13;;;3.30;;
43986;SDS011;29650;47.378;8.300;2023-02-28T00:42:53;3.67;;;2.85;;
43986;SDS011;29650;47.378;8.300;2023-02-28T00:45:26;3.38;;;2.83;;
43986;SDS011;29650;47.378;8.300;2023-02-28T00:47:53;6.82;;;3.58;;
43986;SDS011;29650;47.378;8.300;2023-02-28T00:50:25;8.02;;;3.38;;
43986;SDS011;29650;47.378;8.300;2023-02-28T00:52:54;8.05;;;4.00;;
43986;SDS011;29650;47.378;8.300;2023-02-28T00:55:36;9.93;;;4.20;;
43986;SDS011;29650;47.378;8.300;2023-02-28T00:58:22;3.90;;;2.25;;
43986;SDS011;29650;47.378;8.300;2023-02-28T01:00:50;5.88;;;3.53;;
43986;SDS011;29650;47.378;8.300;2023-02-28T01:03:18;7.72;;;4.20;;
43986;SDS011;29650;47.378;8.300;2023-02-28T01:05:45;5.40;;;3.30;;
43986;SDS011;29650;47.378;8.300;2023-02-28T01:08:14;6.03;;;3.55;;
43986;SDS011;29650;47.378;8.300;2023-02-28T01:10:42;4.63;;;3.33;;
43986;SDS011;29650;47.378;8.300;2023-02-28T01:13:11;5.35;;;3.88;;
43986;SDS011;29650;47.378;8.300;2023-02-28T01:15:39;3.67;;;3.07;;
43986;SDS011;29650;47.378;8.300;2023-02-28T01:18:09;8.80;;;3.53;;
43986;SDS011;29650;47.378;8.300;2023-02-28T01:20:49;5.78;;;2.75;;
43986;SDS011;29650;47.378;8.300;2023-02-28T01:23:19;7.65;;;3.33;;
43986;SDS011;29650;47.378;8.300;2023-02-28T01:25:47;7.93;;;3.22;;
43986;SDS011;29650;47.378;8.300;2023-02-28T01:28:28;4.97;;;3.20;;
43986;SDS011;29650;47.378;8.300;2023-02-28T01:30:55;5.38;;;3.65;;
43986;SDS011;29650;47.378;8.300;2023-02-28T01:33:22;4.57;;;3.67;;
43986;SDS011;29650;47.378;8.300;2023-02-28T01:35:49;7.07;;;3.70;;
43986;SDS011;29650;47.378;8.300;2023-02-28T01:38:24;8.75;;;4.28;;
43986;SDS011;29650;47.378;8.300;2023-02-28T01:40:51;5.38;;;3.63;;
43986;SDS011;29650;47.378;8.300;2023-02-28T01:43:22;6.22;;;4.13;;
43986;SDS011;29650;47.378;8.300;2023-02-28T01:46:11;5.75;;;3.80;;
43986;SDS011;29650;47.378;8.300;2023-02-28T01:48:40;4.13;;;3.00;;
43986;SDS011;29650;47.378;8.300;2023-02-28T01:51:12;5.85;;;4.03;;
43986;SDS011;29650;47.378;8.300;2023-02-28T01:53:49;7.10;;;3.70;;
43986;SDS011;29650;47.378;8.300;2023-02-28T01:56:33;3.67;;;3.13;;
43986;SDS011;29650;47.378;8.300;2023-02-28T01:59:10;9.60;;;4.10;;
43986;SDS011;29650;47.378;8.300;2023-02-28T02:01:41;5.47;;;3.63;;
43986;SDS011;29650;47.378;8.300;2023-02-28T02:04:27;6.45;;;3.40;;
43986;SDS011;29650;47.378;8.300;2023-02-28T02:07:03;17.27;;;3.17;;
43986;SDS011;29650;47.378;8.300;2023-02-28T02:09:32;12.30;;;3.88;;
43986;SDS011;29650;47.378;8.300;2023-02-28T02:12:07;6.90;;;3.72;;
43986;SDS011;29650;47.378;8.300;2023-02-28T02:14:45;7.72;;;3.78;;
43986;SDS011;29650;47.378;8.300;2023-02-28T02:17:23;9.00;;;3.33;;
43986;SDS011;29650;47.378;8.300;2023-02-28T02:26:14;5.32;;;4.07;;
43986;SDS011;29650;47.378;8.300;2023-02-28T02:29:20;6.15;;;3.85;;
43986;SDS011;29650;47.378;8.300;2023-02-28T02:32:18;7.05;;;4.38;;
43986;SDS011;29650;47.378;8.300;2023-02-28T02:35:14;6.10;;;3.78;;
43986;SDS011;29650;47.378;8.300;2023-02-28T02:37:49;8.38;;;4.20;;
43986;SDS011;29650;47.378;8.300;2023-02-28T02:40:19;4.53;;;4.07;;
43986;SDS011;29650;47.378;8.300;2023-02-28T02:42:50;4.80;;;3.97;;
43986;SDS011;29650;47.378;8.300;2023-02-28T02:45:23;5.82;;;3.67;;
43986;SDS011;29650;47.378;8.300;2023-02-28T02:47:53;5.22;;;3.53;;
43986;SDS011;29650;47.378;8.300;2023-02-28T02:50:25;6.25;;;3.85;;
43986;SDS011;29650;47.378;8.300;2023-02-28T02:52:57;7.10;;;4.22;;
43986;SDS011;29650;47.378;8.300;2023-02-28T02:55:28;6.75;;;4.20;;
43986;SDS011;29650;47.378;8.300;2023-02-28T02:57:58;6.90;;;4.22;;
43986;SDS011;29650;47.378;8.300;2023-02-28T03:00:29;8.25;;;4.72;;
43986;SDS011;29650;47.378;8.300;2023-02-28T03:02:58;5.90;;;3.67;;
43986;SDS011;29650;47.378;8.300;2023-02-28T03:05:29;5.78;;;3.60;;
43986;SDS011;29650;47.378;8.300;2023-02-28T03:08:02;7.30;;;3.70;;
43986;SDS011;29650;47.378;8.300;2023-02-28T03:10:32;5.57;;;3.50;;
43986;SDS011;29650;47.378;8.300;2023-02-28T03:13:14;6.47;;;3.75;;
43986;SDS011;29650;47.378;8.300;2023-02-28T03:15:58;9.20;;;4.10;;
43986;SDS011;29650;47.378;8.300;2023-02-28T03:18:39;4.38;;;3.63;;
43986;SDS011;29650;47.378;8.300;2023-02-28T03:21:21;5.82;;;3.17;;
43986;SDS011;29650;47.378;8.300;2023-02-28T03:23:55;5.95;;;3.75;;
43986;SDS011;29650;47.378;8.300;2023-02-28T03:26:28;6.93;;;4.85;;
43986;SDS011;29650;47.378;8.300;2023-02-28T03:28:59;7.40;;;4.00;;
43986;SDS011;29650;47.378;8.300;2023-02-28T03:31:30;5.93;;;3.88;;
43986;SDS011;29650;47.378;8.300;2023-02-28T03:34:04;4.93;;;4.05;;
43986;SDS011;29650;47.378;8.300;2023-02-28T03:36:36;10.60;;;3.95;;
43986;SDS011;29650;47.378;8.300;2023-02-28T03:39:09;4.18;;;3.33;;
43986;SDS011;29650;47.378;8.300;2023-02-28T03:41:42;9.23;;;4.50;;
43986;SDS011;29650;47.378;8.300;2023-02-28T03:44:15;8.07;;;4.20;;
43986;SDS011;29650;47.378;8.300;2023-02-28T03:46:48;8.93;;;5.07;;
43986;SDS011;29650;47.378;8.300;2023-02-28T03:49:21;5.05;;;2.88;;
43986;SDS011;29650;47.378;8.300;2023-02-28T03:51:54;5.18;;;4.65;;
43986;SDS011;29650;47.378;8.300;2023-02-28T03:54:25;7.53;;;4.30;;
43986;SDS011;29650;47.378;8.300;2023-02-28T03:56:58;6.72;;;4.07;;
43986;SDS011;29650;47.378;8.300;2023-02-28T03:59:30;8.32;;;4.10;;
43986;SDS011;29650;47.378;8.300;2023-02-28T04:02:01;8.10;;;5.20;;
43986;SDS011;29650;47.378;8.300;2023-02-28T04:04:28;9.25;;;3.88;;
43986;SDS011;29650;47.378;8.300;2023-02-28T04:07:02;4.88;;;3.65;;
43986;SDS011;29650;47.378;8.300;2023-02-28T04:09:30;4.40;;;3.22;;
43986;SDS011;29650;47.378;8.300;2023-02-28T04:11:57;5.68;;;3.22;;
43986;SDS011;29650;47.378;8.300;2023-02-28T04:14:24;7.38;;;4.18;;
43986;SDS011;29650;47.378;8.300;2023-02-28T04:16:52;6.88;;;4.10;;
43986;SDS011;29650;47.378;8.300;2023-02-28T04:19:19;7.85;;;4.15;;
43986;SDS011;29650;47.378;8.300;2023-02-28T04:21:46;6.85;;;3.10;;
43986;SDS011;29650;47.378;8.300;2023-02-28T04:24:16;4.13;;;3.10;;
43986;SDS011;29650;47.378;8.300;2023-02-28T04:26:45;7.78;;;3.92;;
43986;SDS011;29650;47.378;8.300;2023-02-28T04:29:14;6.88;;;3.78;;
43986;SDS011;29650;47.378;8.300;2023-02-28T04:31:45;6.95;;;3.92;;
43986;SDS011;29650;47.378;8.300;2023-02-28T04:34:11;5.68;;;3.45;;
43986;SDS011;29650;47.378;8.300;2023-02-28T04:36:38;4.35;;;2.97;;
43986;SDS011;29650;47.378;8.300;2023-02-28T04:39:05;6.47;;;3.47;;
43986;SDS011;29650;47.378;8.300;2023-02-28T04:41:34;7.45;;;4.07;;
43986;SDS011;29650;47.378;8.300;2023-02-28T04:44:01;4.53;;;3.27;;
43986;SDS011;29650;47.378;8.300;2023-02-28T04:46:27;5.80;;;3.80;;
43986;SDS011;29650;47.378;8.300;2023-02-28T04:48:55;7.50;;;4.00;;
43986;SDS011;29650;47.378;8.300;2023-02-28T04:51:23;6.28;;;3.70;;
43986;SDS011;29650;47.378;8.300;2023-02-28T04:53:50;5.90;;;4.03;;
43986;SDS011;29650;47.378;8.300;2023-02-28T04:56:17;8.10;;;3.92;;
43986;SDS011;29650;47.378;8.300;2023-02-28T04:58:46;4.10;;;3.55;;
43986;SDS011;29650;47.378;8.300;2023-02-28T05:01:17;5.80;;;3.47;;
43986;SDS011;29650;47.378;8.300;2023-02-28T05:03:46;5.38;;;3.83;;
43986;SDS011;29650;47.378;8.300;2023-02-28T05:06:14;4.80;;;3.40;;
43986;SDS011;29650;47.378;8.300;2023-02-28T05:08:41;5.60;;;3.45;;
43986;SDS011;29650;47.378;8.300;2023-02-28T05:11:12;5.13;;;3.33;;
43986;SDS011;29650;47.378;8.300;2023-02-28T05:13:41;4.70;;;3.45;;
43986;SDS011;29650;47.378;8.300;2023-02-28T05:16:10;4.40;;;4.00;;
43986;SDS011;29650;47.378;8.300;2023-02-28T05:18:37;5.87;;;3.67;;
43986;SDS011;29650;47.378;8.300;2023-02-28T05:21:04;5.15;;;3.42;;
43986;SDS011;29650;47.378;8.300;2023-02-28T05:23:31;4.40;;;3.25;;
43986;SDS011;29650;47.378;8.300;2023-02-28T05:25:58;5.80;;;3.58;;
43986;SDS011;29650;47.378;8.300;2023-02-28T05:28:25;3.60;;;3.28;;
43986;SDS011;29650;47.378;8.300;2023-02-28T05:30:52;11.40;;;3.80;;
43986;SDS011;29650;47.378;8.300;2023-02-28T05:33:20;6.63;;;3.58;;
43986;SDS011;29650;47.378;8.300;2023-02-28T05:35:47;6.67;;;3.47;;
43986;SDS011;29650;47.378;8.300;2023-02-28T05:38:14;4.28;;;2.97;;
43986;SDS011;29650;47.378;8.300;2023-02-28T05:40:42;8.30;;;3.55;;
43986;SDS011;29650;47.378;8.300;2023-02-28T05:43:10;4.90;;;3.20;;
43986;SDS011;29650;47.378;8.300;2023-02-28T05:45:37;4.63;;;3.28;;
43986;SDS011;29650;47.378;8.300;2023-02-28T05:48:04;6.45;;;4.05;;
43986;SDS011;29650;47.378;8.300;2023-02-28T05:50:33;4.90;;;3.10;;
43986;SDS011;29650;47.378;8.300;2023-02-28T05:53:00;5.87;;;4.00;;
43986;SDS011;29650;47.378;8.300;2023-02-28T05:55:27;5.18;;;3.58;;
43986;SDS011;29650;47.378;8.300;2023-02-28T05:57:53;7.25;;;4.00;;
43986;SDS011;29650;47.378;8.300;2023-02-28T06:00:21;5.30;;;3.80;;
43986;SDS011;29650;47.378;8.300;2023-02-28T06:02:48;8.20;;;3.88;;
43986;SDS011;29650;47.378;8.300;2023-02-28T06:05:17;10.07;;;3.35;;
43986;SDS011;29650;47.378;8.300;2023-02-28T06:07:45;5.25;;;2.80;;
43986;SDS011;29650;47.378;8.300;2023-02-28T06:10:13;5.17;;;2.77;;
43986;SDS011;29650;47.378;8.300;2023-02-28T06:12:40;7.75;;;3.15;;
43986;SDS011;29650;47.378;8.300;2023-02-28T06:15:09;4.35;;;2.33;;
43986;SDS011;29650;47.378;8.300;2023-02-28T06:17:39;6.55;;;3.85;;
43986;SDS011;29650;47.378;8.300;2023-02-28T06:20:06;4.35;;;2.80;;
43986;SDS011;29650;47.378;8.300;2023-02-28T06:22:34;4.70;;;3.08;;
43986;SDS011;29650;47.378;8.300;2023-02-28T06:25:03;5.40;;;3.20;;
43986;SDS011;29650;47.378;8.300;2023-02-28T06:29:57;6.13;;;3.22;;
43986;SDS011;29650;47.378;8.300;2023-02-28T06:32:24;7.47;;;3.97;;
43986;SDS011;29650;47.378;8.300;2023-02-28T06:34:51;3.83;;;2.80;;
43986;SDS011;29650;47.378;8.300;2023-02-28T06:37:18;5.72;;;4.03;;
43986;SDS011;29650;47.378;8.300;2023-02-28T06:39:45;7.97;;;3.47;;
43986;SDS011;29650;47.378;8.300;2023-02-28T06:42:13;11.73;;;3.40;;
43986;SDS011;29650;47.378;8.300;2023-02-28T06:44:40;8.03;;;3.67;;
43986;SDS011;29650;47.378;8.300;2023-02-28T06:47:08;6.10;;;3.60;;
43986;SDS011;29650;47.378;8.300;2023-02-28T06:49:35;6.53;;;3.75;;
43986;SDS011;29650;47.378;8.300;2023-02-28T06:52:03;9.40;;;3.60;;
43986;SDS011;29650;47.378;8.300;2023-02-28T06:54:30;7.57;;;4.50;;
43986;SDS011;29650;47.378;8.300;2023-02-28T06:56:57;5.82;;;3.90;;
43986;SDS011;29650;47.378;8.300;2023-02-28T06:59:26;10.00;;;3.88;;
43986;SDS011;29650;47.378;8.300;2023-02-28T07:01:52;6.07;;;3.37;;
43986;SDS011;29650;47.378;8.300;2023-02-28T07:04:20;8.35;;;3.95;;
43986;SDS011;29650;47.378;8.300;2023-02-28T07:06:47;8.10;;;4.60;;
43986;SDS011;29650;47.378;8.300;2023-02-28T07:09:14;5.82;;;3.65;;
43986;SDS011;29650;47.378;8.300;2023-02-28T07:11:41;9.35;;;3.40;;
43986;SDS011;29650;47.378;8.300;2023-02-28T07:14:08;5.80;;;3.53;;
43986;SDS011;29650;47.378;8.300;2023-02-28T07:16:37;5.40;;;3.67;;
43986;SDS011;29650;47.378;8.300;2023-02-28T07:19:04;6.07;;;3.78;;
43986;SDS011;29650;47.378;8.300;2023-02-28T07:21:31;10.35;;;4.15;;
43986;SDS011;29650;47.378;8.300;2023-02-28T07:23:58;6.13;;;3.60;;
43986;SDS011;29650;47.378;8.300;2023-02-28T07:26:25;5.20;;;3.30;;
43986;SDS011;29650;47.378;8.300;2023-02-28T07:28:54;4.38;;;3.40;;
43986;SDS011;29650;47.378;8.300;2023-02-28T07:31:21;7.18;;;3.92;;
43986;SDS011;29650;47.378;8.300;2023-02-28T07:33:49;8.45;;;4.40;;
43986;SDS011;29650;47.378;8.300;2023-02-28T07:36:16;5.73;;;3.63;;
43986;SDS011;29650;47.378;8.300;2023-02-28T07:38:45;8.00;;;4.57;;
43986;SDS011;29650;47.378;8.300;2023-02-28T07:41:13;10.23;;;4.63;;
43986;SDS011;29650;47.378;8.300;2023-02-28T07:43:40;8.73;;;4.57;;
43986;SDS011;29650;47.378;8.300;2023-02-28T07:46:07;8.23;;;3.60;;
43986;SDS011;29650;47.378;8.300;2023-02-28T07:48:37;4.70;;;4.03;;
43986;SDS011;29650;47.378;8.300;2023-02-28T07:51:06;6.10;;;4.00;;
43986;SDS011;29650;47.378;8.300;2023-02-28T07:53:33;5.35;;;3.92;;
43986;SDS011;29650;47.378;8.300;2023-02-28T07:56:00;7.20;;;3.00;;
43986;SDS011;29650;47.378;8.300;2023-02-28T07:58:28;4.00;;;3.20;;
43986;SDS011;29650;47.378;8.300;2023-02-28T08:00:56;6.38;;;3.40;;
43986;SDS011;29650;47.378;8.300;2023-02-28T08:03:23;4.63;;;3.42;;
43986;SDS011;29650;47.378;8.300;2023-02-28T08:05:50;4.78;;;3.42;;
43986;SDS011;29650;47.378;8.300;2023-02-28T08:08:19;6.28;;;3.95;;
43986;SDS011;29650;47.378;8.300;2023-02-28T08:10:46;7.17;;;4.00;;
43986;SDS011;29650;47.378;8.300;2023-02-28T08:13:13;7.18;;;3.67;;
43986;SDS011;29650;47.378;8.300;2023-02-28T08:15:40;4.57;;;3.53;;
43986;SDS011;29650;47.378;8.300;2023-02-28T08:18:08;7.88;;;3.97;;
43986;SDS011;29650;47.378;8.300;2023-02-28T08:20:35;5.78;;;3.42;;
43986;SDS011;29650;47.378;8.300;2023-02-28T08:23:02;6.47;;;4.07;;
43986;SDS011;29650;47.378;8.300;2023-02-28T08:25:30;6.82;;;3.85;;
43986;SDS011;29650;47.378;8.300;2023-02-28T08:27:57;4.17;;;3.40;;
43986;SDS011;29650;47.378;8.300;2023-02-28T08:30:24;6.53;;;3.85;;
43986;SDS011;29650;47.378;8.300;2023-02-28T08:32:51;6.82;;;3.47;;
43986;SDS011;29650;47.378;8.300;2023-02-28T08:35:18;6.57;;;4.18;;
43986;SDS011;29650;47.378;8.300;2023-02-28T08:37:47;6.38;;;4.10;;
43986;SDS011;29650;47.378;8.300;2023-02-28T08:40:14;5.72;;;3.50;;
43986;SDS011;29650;47.378;8.300;2023-02-28T08:42:44;7.18;;;4.35;;
43986;SDS011;29650;47.378;8.300;2023-02-28T08:45:12;5.43;;;4.00;;
43986;SDS011;29650;47.378;8.300;2023-02-28T08:47:39;6.05;;;4.10;;
43986;SDS011;29650;47.378;8.300;2023-02-28T08:50:07;6.32;;;3.85;;
43986;SDS011;29650;47.378;8.300;2023-02-28T08:52:35;4.63;;;3.85;;
43986;SDS011;29650;47.378;8.300;2023-02-28T08:55:03;5.22;;;3.50;;
43986;SDS011;29650;47.378;8.300;2023-02-28T08:57:30;8.15;;;3.67;;
43986;SDS011;29650;47.378;8.300;2023-02-28T08:59:59;8.02;;;4.13;;
43986;SDS011;29650;47.378;8.300;2023-02-28T09:02:29;8.00;;;5.15;;
43986;SDS011;29650;47.378;8.300;2023-02-28T09:04:56;7.38;;;4.53;;
43986;SDS011;29650;47.378;8.300;2023-02-28T09:07:23;5.45;;;4.22;;
43986;SDS011;29650;47.378;8.300;2023-02-28T09:09:50;7.68;;;4.15;;
43986;SDS011;29650;47.378;8.300;2023-02-28T09:12:20;7.78;;;4.30;;
43986;SDS011;29650;47.378;8.300;2023-02-28T09:14:47;7.82;;;4.10;;
43986;SDS011;29650;47.378;8.300;2023-02-28T09:17:16;6.25;;;4.18;;
43986;SDS011;29650;47.378;8.300;2023-02-28T09:19:43;9.55;;;4.97;;
43986;SDS011;29650;47.378;8.300;2023-02-28T09:22:10;5.93;;;4.32;;
43986;SDS011;29650;47.378;8.300;2023-02-28T09:24:38;7.10;;;3.75;;
43986;SDS011;29650;47.378;8.300;2023-02-28T09:27:05;5.03;;;3.47;;
43986;SDS011;29650;47.378;8.300;2023-02-28T09:29:32;8.57;;;4.72;;
43986;SDS011;29650;47.378;8.300;2023-02-28T09:32:00;7.70;;;4.30;;
43986;SDS011;29650;47.378;8.300;2023-02-28T09:34:28;3.60;;;2.50;;
43986;SDS011;29650;47.378;8.300;2023-02-28T09:36:56;9.00;;;4.78;;
43986;SDS011;29650;47.378;8.300;2023-02-28T09:39:23;10.77;;;4.07;;
43986;SDS011;29650;47.378;8.300;2023-02-28T09:41:52;5.95;;;3.83;;
43986;SDS011;29650;47.378;8.300;2023-02-28T09:44:22;8.13;;;3.97;;
43986;SDS011;29650;47.378;8.300;2023-02-28T09:46:56;6.18;;;4.18;;
43986;SDS011;29650;47.378;8.300;2023-02-28T09:49:28;11.90;;;4.28;;
43986;SDS011;29650;47.378;8.300;2023-02-28T09:52:03;4.43;;;2.65;;
43986;SDS011;29650;47.378;8.300;2023-02-28T09:54:35;6.32;;;3.03;;
43986;SDS011;29650;47.378;8.300;2023-02-28T09:57:05;5.07;;;2.45;;
43986;SDS011;29650;47.378;8.300;2023-02-28T10:02:51;4.23;;;2.83;;
43986;SDS011;29650;47.378;8.300;2023-02-28T10:05:37;3.97;;;3.08;;
43986;SDS011;29650;47.378;8.300;2023-02-28T10:08:10;9.88;;;4.50;;
43986;SDS011;29650;47.378;8.300;2023-02-28T10:10:41;8.20;;;4.72;;
43986;SDS011;29650;47.378;8.300;2023-02-28T10:13:15;8.63;;;3.97;;
43986;SDS011;29650;47.378;8.300;2023-02-28T10:15:49;7.28;;;4.35;;
43986;SDS011;29650;47.378;8.300;2023-02-28T10:18:21;5.32;;;3.35;;
43986;SDS011;29650;47.378;8.300;2023-02-28T10:20:52;6.70;;;4.18;;
43986;SDS011;29650;47.378;8.300;2023-02-28T10:23:22;12.55;;;5.45;;
43986;SDS011;29650;47.378;8.300;2023-02-28T10:25:55;6.28;;;3.67;;
43986;SDS011;29650;47.378;8.300;2023-02-28T10:28:26;5.80;;;2.83;;
43986;SDS011;29650;47.378;8.300;2023-02-28T10:30:56;5.50;;;1.75;;
43986;SDS011;29650;47.378;8.300;2023-02-28T10:33:25;5.72;;;3.47;;
43986;SDS011;29650;47.378;8.300;2023-02-28T10:35:56;8.00;;;3.88;;
43986;SDS011;29650;47.378;8.300;2023-02-28T10:38:24;5.50;;;3.17;;
43986;SDS011;29650;47.378;8.300;2023-02-28T10:40:57;7.38;;;3.47;;
43986;SDS011;29650;47.378;8.300;2023-02-28T10:43:30;6.72;;;3.60;;
43986;SDS011;29650;47.378;8.300;2023-02-28T10:45:58;5.70;;;3.50;;
43986;SDS011;29650;47.378;8.300;2023-02-28T10:48:34;5.10;;;3.63;;
43986;SDS011;29650;47.378;8.300;2023-02-28T10:51:05;7.93;;;5.03;;
43986;SDS011;29650;47.378;8.300;2023-02-28T10:53:45;6.38;;;3.47;;
43986;SDS011;29650;47.378;8.300;2023-02-28T10:56:17;6.15;;;3.78;;
43986;SDS011;29650;47.378;8.300;2023-02-28T10:58:54;5.75;;;4.10;;
43986;SDS011;29650;47.378;8.300;2023-02-28T11:01:23;3.30;;;2.75;;
43986;SDS011;29650;47.378;8.300;2023-02-28T11:03:51;6.72;;;3.67;;
43986;SDS011;29650;47.378;8.300;2023-02-28T11:06:21;6.93;;;4.95;;
43986;SDS011;29650;47.378;8.300;2023-02-28T11:08:51;6.50;;;4.60;;
43986;SDS011;29650;47.378;8.300;2023-02-28T11:11:20;6.63;;;4.28;;
43986;SDS011;29650;47.378;8.300;2023-02-28T11:13:50;4.20;;;2.78;;
43986;SDS011;29650;47.378;8.300;2023-02-28T11:16:19;6.55;;;3.97;;
43986;SDS011;29650;47.378;8.300;2023-02-28T11:18:47;9.30;;;3.00;;
43986;SDS011;29650;47.378;8.300;2023-02-28T11:21:17;7.05;;;4.32;;
43986;SDS011;29650;47.378;8.300;2023-02-28T11:23:48;6.63;;;3.08;;
43986;SDS011;29650;47.378;8.300;2023-02-28T11:29:17;6.93;;;4.15;;
43986;SDS011;29650;47.378;8.300;2023-02-28T11:32:03;7.30;;;4.93;;
43986;SDS011;29650;47.378;8.300;2023-02-28T11:34:36;6.45;;;3.40;;
43986;SDS011;29650;47.378;8.300;2023-02-28T11:37:08;8.90;;;4.97;;
43986;SDS011;29650;47.378;8.300;2023-02-28T11:39:39;7.90;;;4.15;;
43986;SDS011;29650;47.378;8.300;2023-02-28T11:42:10;5.15;;;3.72;;
43986;SDS011;29650;47.378;8.300;2023-02-28T11:44:53;8.40;;;4.30;;
43986;SDS011;29650;47.378;8.300;2023-02-28T11:47:32;7.30;;;4.32;;
43986;SDS011;29650;47.378;8.300;2023-02-28T11:50:12;6.95;;;3.70;;
43986;SDS011;29650;47.378;8.300;2023-02-28T11:53:04;7.13;;;4.13;;
43986;SDS011;29650;47.378;8.300;2023-02-28T11:58:17;8.45;;;3.90;;
43986;SDS011;29650;47.378;8.300;2023-02-28T12:00:59;9.43;;;4.82;;
43986;SDS011;29650;47.378;8.300;2023-02-28T12:03:35;7.72;;;4.63;;
43986;SDS011;29650;47.378;8.300;2023-02-28T12:06:13;7.13;;;4.40;;
43986;SDS011;29650;47.378;8.300;2023-02-28T12:08:52;6.95;;;4.45;;
43986;SDS011;29650;47.378;8.300;2023-02-28T12:11:30;9.48;;;5.05;;
43986;SDS011;29650;47.378;8.300;2023-02-28T12:14:14;6.78;;;4.57;;
43986;SDS011;29650;47.378;8.300;2023-02-28T12:16:58;8.38;;;3.90;;
43986;SDS011;29650;47.378;8.300;2023-02-28T12:19:33;7.05;;;4.32;;
43986;SDS011;29650;47.378;8.300;2023-02-28T12:22:20;6.97;;;5.18;;
43986;SDS011;29650;47.378;8.300;2023-02-28T12:25:00;11.30;;;4.70;;
43986;SDS011;29650;47.378;8.300;2023-02-28T12:27:46;6.43;;;3.58;;
43986;SDS011;29650;47.378;8.300;2023-02-28T12:30:16;7.22;;;4.90;;
43986;SDS011;29650;47.378;8.300;2023-02-28T12:32:48;8.02;;;4.60;;
43986;SDS011;29650;47.378;8.300;2023-02-28T12:35:19;13.50;;;3.65;;
43986;SDS011;29650;47.378;8.300;2023-02-28T12:37:51;6.35;;;4.72;;
43986;SDS011;29650;47.378;8.300;2023-02-28T12:40:25;8.88;;;4.35;;
43986;SDS011;29650;47.378;8.300;2023-02-28T12:42:55;8.30;;;5.38;;
43986;SDS011;29650;47.378;8.300;2023-02-28T12:45:27;8.18;;;4.80;;
43986;SDS011;29650;47.378;8.300;2023-02-28T12:48:06;7.53;;;4.47;;
43986;SDS011;29650;47.378;8.300;2023-02-28T12:50:38;6.32;;;4.25;;
43986;SDS011;29650;47.378;8.300;2023-02-28T12:53:07;8.00;;;5.03;;
43986;SDS011;29650;47.378;8.300;2023-02-28T12:55:40;5.40;;;2.60;;
43986;SDS011;29650;47.378;8.300;2023-02-28T12:58:14;6.10;;;3.85;;
43986;SDS011;29650;47.378;8.300;2023-02-28T13:00:48;9.40;;;5.20;;
43986;SDS011;29650;47.378;8.300;2023-02-28T13:03:39;9.68;;;4.20;;
43986;SDS011;29650;47.378;8.300;2023-02-28T13:06:33;10.82;;;4.32;;
43986;SDS011;29650;47.378;8.300;2023-02-28T13:09:17;7.15;;;4.47;;
43986;SDS011;29650;47.378;8.300;2023-02-28T13:11:47;16.63;;;3.88;;
43986;SDS011;29650;47.378;8.300;2023-02-28T13:14:23;9.07;;;4.78;;
43986;SDS011;29650;47.378;8.300;2023-02-28T13:17:03;11.85;;;4.30;;
43986;SDS011;29650;47.378;8.300;2023-02-28T13:19:37;7.60;;;4.22;;
43986;SDS011;29650;47.378;8.300;2023-02-28T13:22:10;3.17;;;2.10;;
43986;SDS011;29650;47.378;8.300;2023-02-28T13:24:48;7.70;;;5.10;;
43986;SDS011;29650;47.378;8.300;2023-02-28T13:35:48;8.85;;;4.65;;
43986;SDS011;29650;47.378;8.300;2023-02-28T13:38:36;6.93;;;4.97;;
43986;SDS011;29650;47.378;8.300;2023-02-28T13:41:40;6.22;;;3.85;;
43986;SDS011;29650;47.378;8.300;2023-02-28T13:44:13;8.82;;;5.60;;
43986;SDS011;29650;47.378;8.300;2023-02-28T13:49:45;7.78;;;4.72;;
43986;SDS011;29650;47.378;8.300;2023-02-28T13:52:14;7.38;;;5.32;;
43986;SDS011;29650;47.378;8.300;2023-02-28T13:58:04;8.35;;;5.03;;
43986;SDS011;29650;47.378;8.300;2023-02-28T14:00:46;7.18;;;4.82;;
43986;SDS011;29650;47.378;8.300;2023-02-28T14:03:33;7.18;;;4.45;;
43986;SDS011;29650;47.378;8.300;2023-02-28T14:06:17;9.77;;;5.20;;
43986;SDS011;29650;47.378;8.300;2023-02-28T14:08:52;7.85;;;4.40;;
43986;SDS011;29650;47.378;8.300;2023-02-28T14:11:26;18.05;;;5.35;;
43986;SDS011;29650;47.378;8.300;2023-02-28T14:13:56;8.20;;;4.53;;
43986;SDS011;29650;47.378;8.300;2023-02-28T14:16:25;6.47;;;4.10;;
43986;SDS011;29650;47.378;8.300;2023-02-28T14:18:56;9.18;;;4.78;;
43986;SDS011;29650;47.378;8.300;2023-02-28T14:21:27;8.77;;;5.57;;
43986;SDS011;29650;47.378;8.300;2023-02-28T14:26:32;4.22;;;2.92;;
43986;SDS011;29650;47.378;8.300;2023-02-28T14:32:18;11.93;;;5.47;;
43986;SDS011;29650;47.378;8.300;2023-02-28T14:34:53;8.05;;;4.47;;
43986;SDS011;29650;47.378;8.300;2023-02-28T14:37:26;9.88;;;6.10;;
43986;SDS011;29650;47.378;8.300;2023-02-28T14:39:56;8.98;;;5.40;;
43986;SDS011;29650;47.378;8.300;2023-02-28T14:42:28;9.82;;;5.82;;
43986;SDS011;29650;47.378;8.300;2023-02-28T14:44:56;10.07;;;6.00;;
43986;SDS011;29650;47.378;8.300;2023-02-28T14:47:25;12.60;;;6.53;;
43986;SDS011;29650;47.378;8.300;2023-02-28T14:49:55;6.25;;;3.60;;
43986;SDS011;29650;47.378;8.300;2023-02-28T14:52:23;12.27;;;6.53;;
43986;SDS011;29650;47.378;8.300;2023-02-28T14:54:52;10.38;;;5.60;;
43986;SDS011;29650;47.378;8.300;2023-02-28T14:57:22;11.95;;;6.82;;
43986;SDS011;29650;47.378;8.300;2023-02-28T14:59:57;11.77;;;6.13;;
43986;SDS011;29650;47.378;8.300;2023-02-28T15:02:30;11.45;;;7.15;;
43986;SDS011;29650;47.378;8.300;2023-02-28T15:05:01;11.02;;;6.88;;
43986;SDS011;29650;47.378;8.300;2023-02-28T15:07:42;13.65;;;6.90;;
43986;SDS011;29650;47.378;8.300;2023-02-28T15:10:11;11.15;;;5.60;;
43986;SDS011;29650;47.378;8.300;2023-02-28T15:12:45;11.85;;;6.15;;
43986;SDS011;29650;47.378;8.300;2023-02-28T15:15:17;14.02;;;6.28;;
43986;SDS011;29650;47.378;8.300;2023-02-28T15:17:50;9.98;;;5.80;;
43986;SDS011;29650;47.378;8.300;2023-02-28T15:20:20;13.50;;;6.78;;
43986;SDS011;29650;47.378;8.300;2023-02-28T15:22:49;12.38;;;6.60;;
43986;SDS011;29650;47.378;8.300;2023-02-28T15:25:18;9.80;;;5.68;;
43986;SDS011;29650;47.378;8.300;2023-02-28T15:30:16;10.68;;;5.63;;
43986;SDS011;29650;47.378;8.300;2023-02-28T15:32:44;14.23;;;7.50;;
43986;SDS011;29650;47.378;8.300;2023-02-28T15:35:28;9.57;;;5.57;;
43986;SDS011;29650;47.378;8.300;2023-02-28T15:37:57;9.52;;;5.82;;
43986;SDS011;29650;47.378;8.300;2023-02-28T15:40:28;10.48;;;7.40;;
43986;SDS011;29650;47.378;8.300;2023-02-28T15:45:28;15.75;;;7.38;;
43986;SDS011;29650;47.378;8.300;2023-02-28T15:48:01;11.15;;;6.63;;
43986;SDS011;29650;47.378;8.300;2023-02-28T15:50:28;12.93;;;7.78;;
43986;SDS011;29650;47.378;8.300;2023-02-28T15:52:55;12.25;;;6.53;;